This is the latest recevied weather packets stored in our database for station/object HB9KBJ-4. If no packets are shown the sender has not sent any weather packets the latest 10 day(s).
| Time | Temp. | Humidity | Pressure | Rain* | Wind** | Luminosity | Snow |
|---|---|---|---|---|---|---|---|
| 1777810713 | 21.67° C | 39% | - | 0 mm | - | - | - |
| 1777810413 | 21.67° C | 40% | - | 0 mm | - | - | - |
| 1777810113 | 21.67° C | 39% | - | 0 mm | - | - | - |
| 1777809813 | 21.67° C | 39% | - | 0 mm | - | - | - |
| 1777809512 | 21.67° C | 38% | - | 0 mm | - | - | - |
| 1777808912 | 21.67° C | 36% | - | 0 mm | - | - | - |
| 1777808612 | 22.22° C | 38% | - | 0 mm | - | - | - |
| 1777808311 | 22.22° C | 38% | - | 0 mm | - | - | - |
| 1777807110 | 20.56° C | 46% | - | 0 mm | - | - | - |
| 1777806810 | 20° C | 46% | - | 0 mm | - | - | - |
| 1777806209 | 18.33° C | 50% | - | 0 mm | - | - | - |
| 1777805909 | 17.78° C | 51% | - | 0 mm | - | - | - |
| 1777805609 | 17.78° C | 51% | - | 0 mm | - | - | - |
| 1777805008 | 17.78° C | 52% | - | 0 mm | - | - | - |
| 1777804408 | 17.78° C | 53% | - | 0 mm | - | - | - |
| 1777804107 | 17.22° C | 54% | - | 0 mm | - | - | - |
| 1777803807 | 17.22° C | 54% | - | 0 mm | - | - | - |
| 1777802305 | 16.67° C | 57% | - | 0 mm | - | - | - |
| 1777802005 | 16.67° C | 57% | - | 0 mm | - | - | - |
| 1777801405 | 16.11° C | 54% | - | 0 mm | - | - | - |
| 1777801104 | 16.67° C | 54% | - | 0 mm | - | - | - |
| 1777800804 | 16.67° C | 55% | - | 0 mm | - | - | - |
| 1777800504 | 16.11° C | 55% | - | 0 mm | - | - | - |
| 1777800204 | 16.11° C | 56% | - | 0 mm | - | - | - |
| 1777799903 | 16.11° C | 58% | - | 0 mm | - | - | - |
* Rain since midnight (hover to see other rain measurements)
** Current wind speed in m/s (hover to see current wind gust speed)